Time;durP1;ratioP1;P1;durP2;ratioP2;P2;SDS_P1;SDS_P2;PMS_P1;PMS_P2;Temp;Humidity;BMP_temperature;BMP_pressure;BME280_temperature;BME280_humidity;BME280_pressure;Samples;Min_cycle;Max_cycle;Signal;HPM_P1;HPM_P2
2023/05/20 00:00:24;;;;;;;6.22;5.35;;;15.10;76.60;;;;;;5004845;28;20033;-61
2023/05/20 00:02:50;;;;;;;6.22;5.43;;;15.20;76.60;;;;;;5012980;28;20045;-62
2023/05/20 00:05:15;;;;;;;9.00;5.18;;;15.20;76.60;;;;;;5015645;28;20116;-62
2023/05/20 00:07:41;;;;;;;6.00;4.80;;;15.20;76.60;;;;;;5010142;28;20038;-61
2023/05/20 00:10:07;;;;;;;5.28;4.70;;;15.10;76.60;;;;;;5007483;28;20038;-61
2023/05/20 00:12:33;;;;;;;6.40;4.88;;;15.20;76.60;;;;;;5011154;28;20041;-61
2023/05/20 00:14:59;;;;;;;5.43;4.50;;;15.20;76.60;;;;;;5010171;28;20396;-61
2023/05/20 00:17:27;;;;;;;5.22;4.20;;;15.10;76.70;;;;;;5009514;28;20066;-62
2023/05/20 00:19:52;;;;;;;6.82;4.35;;;15.20;76.80;;;;;;5009983;28;20045;-61
2023/05/20 00:22:18;;;;;;;4.45;3.90;;;15.20;76.80;;;;;;5009740;28;20398;-60
2023/05/20 00:24:44;;;;;;;5.28;3.58;;;15.20;76.80;;;;;;5011817;28;20054;-60
2023/05/20 00:27:09;;;;;;;5.55;3.17;;;15.10;76.70;;;;;;5007697;28;20480;-60
2023/05/20 00:29:35;;;;;;;3.33;3.03;;;15.20;76.70;;;;;;5008959;28;20042;-60
2023/05/20 00:32:00;;;;;;;4.03;3.20;;;15.20;76.70;;;;;;5008056;28;20030;-61
2023/05/20 00:34:26;;;;;;;3.17;2.88;;;15.20;76.70;;;;;;5007874;28;20505;-61
2023/05/20 00:36:52;;;;;;;3.40;2.75;;;15.10;76.70;;;;;;5010927;28;20048;-61
2023/05/20 00:39:17;;;;;;;4.90;3.17;;;15.20;76.80;;;;;;5014076;28;20213;-61
2023/05/20 00:41:43;;;;;;;3.22;2.90;;;15.10;76.70;;;;;;5006573;28;20073;-61
2023/05/20 00:44:09;;;;;;;3.40;3.05;;;15.10;76.70;;;;;;5014672;28;20537;-61
2023/05/20 00:46:34;;;;;;;3.95;3.00;;;15.10;76.70;;;;;;5012270;28;20038;-61
2023/05/20 00:49:01;;;;;;;4.47;2.88;;;15.10;76.60;;;;;;5010744;28;20105;-60
2023/05/20 00:51:26;;;;;;;3.58;3.00;;;15.10;76.70;;;;;;5013165;28;20124;-60
2023/05/20 00:53:52;;;;;;;3.60;3.10;;;15.10;76.80;;;;;;5011545;28;20684;-62
2023/05/20 00:56:20;;;;;;;3.78;3.03;;;15.10;76.90;;;;;;5008801;28;20033;-61
2023/05/20 00:58:46;;;;;;;5.40;3.00;;;15.10;76.90;;;;;;5006917;28;20041;-61
2023/05/20 01:01:12;;;;;;;3.13;2.83;;;15.10;76.80;;;;;;5006519;28;20029;-59
2023/05/20 01:03:37;;;;;;;3.45;3.10;;;15.00;76.80;;;;;;5017761;28;20033;-61
2023/05/20 01:06:03;;;;;;;3.20;2.90;;;15.00;76.80;;;;;;5015214;28;20045;-61
2023/05/20 01:08:29;;;;;;;4.28;3.20;;;15.00;76.80;;;;;;5010712;28;20038;-62
2023/05/20 01:11:04;;;;;;;4.00;2.85;;;15.00;76.70;;;;;;5014414;28;20038;-62
2023/05/20 01:13:32;;;;;;;;;;;14.90;76.80;;;;;;5008038;28;20084;-62
2023/05/20 01:16:00;;;;;;;4.30;2.90;;;15.00;76.80;;;;;;5008001;28;19948;-62
2023/05/20 01:18:29;;;;;;;3.30;3.00;;;15.00;76.30;;;;;;5007396;28;20038;-61
2023/05/20 01:21:00;;;;;;;3.15;2.95;;;15.00;76.60;;;;;;5007077;28;22016;-61
2023/05/20 01:23:40;;;;;;;3.97;2.95;;;14.90;76.60;;;;;;5011212;28;20474;-61
2023/05/20 01:26:06;;;;;;;3.30;3.00;;;14.90;76.80;;;;;;5011984;28;20050;-61
2023/05/20 01:28:33;;;;;;;3.30;2.83;;;14.90;76.70;;;;;;5008665;28;20039;-59
2023/05/20 01:31:02;;;;;;;4.18;3.42;;;14.90;76.90;;;;;;5008233;28;20112;-59
2023/05/20 01:33:29;;;;;;;3.33;3.03;;;14.90;77.20;;;;;;5012217;28;20037;-60
2023/05/20 01:35:56;;;;;;;3.35;3.08;;;14.90;77.20;;;;;;5007489;28;20034;-61
2023/05/20 01:38:23;;;;;;;4.05;3.38;;;14.80;77.20;;;;;;5012010;28;20030;-61
2023/05/20 01:40:50;;;;;;;4.30;3.33;;;14.80;77.30;;;;;;5009738;28;20037;-61
2023/05/20 01:43:17;;;;;;;3.88;3.50;;;14.80;77.30;;;;;;5007515;28;20496;-61
2023/05/20 01:45:43;;;;;;;4.10;3.60;;;14.80;77.40;;;;;;5010085;28;20041;-61
2023/05/20 01:48:12;;;;;;;3.58;3.28;;;14.80;77.50;;;;;;5007813;28;20092;-60
2023/05/20 01:50:38;;;;;;;3.60;3.30;;;14.70;77.70;;;;;;5008830;28;20034;-61
2023/05/20 01:53:04;;;;;;;4.30;3.45;;;14.70;77.60;;;;;;5007988;28;20112;-60
2023/05/20 01:55:30;;;;;;;3.80;3.50;;;14.70;77.70;;;;;;5008911;28;20141;-60
2023/05/20 01:57:55;;;;;;;4.28;3.30;;;14.70;77.90;;;;;;5017104;28;20609;-61
2023/05/20 02:00:21;;;;;;;3.85;3.50;;;14.70;77.90;;;;;;5007161;28;20048;-61
2023/05/20 02:02:47;;;;;;;4.07;3.20;;;14.70;78.10;;;;;;5008594;28;20410;-61
2023/05/20 02:05:12;;;;;;;3.75;3.42;;;14.70;78.20;;;;;;5006903;28;20041;-61
2023/05/20 02:07:38;;;;;;;3.40;3.10;;;14.70;78.20;;;;;;5006336;28;20073;-61
2023/05/20 02:10:04;;;;;;;5.03;3.85;;;14.70;78.20;;;;;;5009503;28;20038;-62
2023/05/20 02:12:30;;;;;;;3.97;3.58;;;14.60;78.40;;;;;;5010808;28;20038;-61
2023/05/20 02:14:55;;;;;;;4.30;3.35;;;14.70;78.50;;;;;;5016761;28;20503;-61
2023/05/20 02:17:21;;;;;;;4.20;3.78;;;14.60;78.40;;;;;;5017163;28;20041;-59
2023/05/20 02:19:47;;;;;;;3.92;3.50;;;14.70;78.60;;;;;;5016153;28;20051;-60
2023/05/20 02:22:13;;;;;;;4.78;3.65;;;14.60;78.50;;;;;;5008698;28;20124;-61
2023/05/20 02:24:38;;;;;;;6.95;3.80;;;14.70;78.60;;;;;;5010861;28;20121;-61
2023/05/20 02:27:05;;;;;;;3.97;3.53;;;14.60;78.60;;;;;;5010353;28;20168;-61
2023/05/20 02:29:31;;;;;;;4.60;3.85;;;14.60;78.70;;;;;;5010779;28;20421;-61
2023/05/20 02:31:57;;;;;;;4.18;3.30;;;14.60;78.90;;;;;;5006855;28;20046;-60
2023/05/20 02:34:22;;;;;;;4.05;3.65;;;14.60;79.00;;;;;;5007776;28;20413;-61
2023/05/20 02:36:48;;;;;;;3.92;3.63;;;14.60;79.10;;;;;;5008723;28;20152;-61
2023/05/20 02:39:14;;;;;;;3.72;3.42;;;14.60;79.30;;;;;;5009005;28;20576;-60
2023/05/20 02:41:39;;;;;;;3.83;3.53;;;14.60;79.30;;;;;;5004593;28;20086;-60
2023/05/20 02:44:05;;;;;;;4.00;3.42;;;14.60;79.40;;;;;;5006910;28;20064;-60
2023/05/20 02:46:31;;;;;;;3.75;3.45;;;14.60;79.30;;;;;;5008076;28;20029;-61
2023/05/20 02:48:57;;;;;;;4.03;3.65;;;14.60;79.40;;;;;;5002645;28;20038;-60
2023/05/20 02:51:23;;;;;;;4.85;3.50;;;14.60;79.30;;;;;;5010346;28;20107;-61
2023/05/20 02:53:48;;;;;;;3.72;3.42;;;14.60;79.30;;;;;;5005601;28;20107;-59
2023/05/20 02:56:15;;;;;;;4.03;3.45;;;14.70;79.30;;;;;;5008390;28;20128;-62
2023/05/20 02:58:41;;;;;;;3.75;3.45;;;14.70;79.30;;;;;;5008989;28;20114;-61
2023/05/20 03:01:06;;;;;;;3.70;3.40;;;14.70;79.30;;;;;;5005946;28;20045;-61
2023/05/20 03:03:32;;;;;;;4.03;3.38;;;14.70;79.20;;;;;;5006009;28;20033;-60
2023/05/20 03:05:58;;;;;;;3.92;3.63;;;14.70;79.20;;;;;;5005534;28;20171;-60
2023/05/20 03:08:24;;;;;;;3.83;3.53;;;14.70;79.30;;;;;;5004468;28;20450;-61
2023/05/20 03:10:49;;;;;;;4.55;4.07;;;14.70;79.20;;;;;;5005226;28;20572;-60
2023/05/20 03:13:15;;;;;;;4.28;3.88;;;14.70;79.20;;;;;;5006917;28;20046;-61
2023/05/20 03:15:44;;;;;;;8.10;3.88;;;14.70;79.30;;;;;;5006590;28;20032;-60
2023/05/20 03:18:10;;;;;;;4.03;3.63;;;14.80;79.30;;;;;;5006629;28;20420;-61
2023/05/20 03:20:37;;;;;;;4.55;3.90;;;14.70;79.30;;;;;;5004273;28;20778;-60
2023/05/20 03:23:03;;;;;;;4.20;3.80;;;14.70;79.30;;;;;;5004783;28;20029;-61
2023/05/20 03:25:28;;;;;;;3.97;3.67;;;14.70;79.40;;;;;;5010362;28;20042;-61
2023/05/20 03:27:54;;;;;;;5.88;3.47;;;14.70;79.30;;;;;;5007230;28;20048;-61
2023/05/20 03:30:20;;;;;;;4.70;3.95;;;14.80;79.40;;;;;;5009303;28;20077;-61
2023/05/20 03:32:46;;;;;;;4.60;4.20;;;14.80;79.40;;;;;;5010563;28;20449;-61
2023/05/20 03:35:12;;;;;;;3.95;3.65;;;14.80;79.40;;;;;;5008758;28;20038;-60
2023/05/20 03:37:38;;;;;;;4.40;4.00;;;14.80;79.30;;;;;;5010738;28;20109;-61
2023/05/20 03:40:05;;;;;;;8.18;3.80;;;14.80;79.30;;;;;;5009396;28;20113;-62
2023/05/20 03:42:34;;;;;;;4.35;3.95;;;14.80;79.30;;;;;;5008077;28;20033;-61
2023/05/20 03:44:59;;;;;;;4.20;3.90;;;14.80;79.30;;;;;;5003911;28;20111;-61
2023/05/20 03:47:26;;;;;;;4.38;3.97;;;14.80;79.30;;;;;;5008328;28;20064;-61
2023/05/20 03:49:51;;;;;;;4.28;3.88;;;14.80;79.30;;;;;;5007156;28;20386;-61
2023/05/20 03:52:18;;;;;;;4.50;4.07;;;14.80;79.30;;;;;;5007626;28;20042;-61
2023/05/20 03:54:44;;;;;;;5.10;4.25;;;14.80;79.40;;;;;;5006780;28;20113;-61
2023/05/20 03:57:09;;;;;;;5.03;4.03;;;14.80;79.40;;;;;;5012629;28;20109;-60
2023/05/20 03:59:35;;;;;;;5.45;4.55;;;14.80;79.40;;;;;;5007214;28;20053;-60
2023/05/20 04:02:02;;;;;;;4.38;4.00;;;14.80;79.50;;;;;;5005342;28;20038;-61
2023/05/20 04:04:28;;;;;;;4.88;3.88;;;14.80;79.40;;;;;;5004258;28;20040;-61
2023/05/20 04:06:55;;;;;;;5.15;4.10;;;14.80;79.40;;;;;;4993913;28;20033;-60
2023/05/20 04:09:21;;;;;;;4.05;3.75;;;14.70;79.50;;;;;;5003506;28;20068;-61
2023/05/20 04:11:46;;;;;;;4.10;3.70;;;14.70;79.50;;;;;;5009690;28;20125;-61
2023/05/20 04:14:12;;;;;;;4.85;4.28;;;14.70;79.50;;;;;;5014527;28;20458;-61
2023/05/20 04:16:38;;;;;;;7.88;4.70;;;14.70;79.60;;;;;;5014610;28;20053;-61
2023/05/20 04:19:03;;;;;;;4.65;4.25;;;14.70;79.80;;;;;;5015517;28;20057;-62
2023/05/20 04:21:30;;;;;;;4.63;4.22;;;14.80;79.80;;;;;;5011303;28;20149;-61
2023/05/20 04:23:56;;;;;;;6.95;4.35;;;14.70;79.60;;;;;;5006638;28;20463;-61
2023/05/20 04:26:21;;;;;;;4.80;4.30;;;14.70;79.80;;;;;;5003523;28;20034;-61
2023/05/20 04:28:50;;;;;;;4.93;4.53;;;14.70;80.00;;;;;;5007976;28;20061;-60
2023/05/20 04:31:15;;;;;;;4.50;4.10;;;14.70;80.00;;;;;;5009474;28;20046;-60
2023/05/20 04:33:42;;;;;;;5.55;4.28;;;14.70;80.10;;;;;;5011464;28;20045;-60
2023/05/20 04:36:10;;;;;;;4.50;4.10;;;14.70;80.20;;;;;;5008581;28;20030;-61
2023/05/20 04:38:37;;;;;;;5.55;4.55;;;14.70;80.30;;;;;;5006933;28;20068;-61
2023/05/20 04:41:03;;;;;;;4.85;3.97;;;14.70;80.40;;;;;;5006450;28;20041;-59
2023/05/20 04:43:29;;;;;;;4.22;3.92;;;14.70;80.40;;;;;;5012220;28;20045;-60
2023/05/20 04:45:55;;;;;;;4.75;4.30;;;14.80;80.40;;;;;;5009611;28;20103;-61
2023/05/20 04:48:21;;;;;;;4.60;4.20;;;14.70;80.40;;;;;;5005895;28;20046;-61
2023/05/20 04:50:48;;;;;;;4.88;4.38;;;14.80;80.50;;;;;;5009702;28;20472;-60
2023/05/20 04:53:14;;;;;;;5.38;4.50;;;14.80;80.50;;;;;;5007978;28;20043;-60
2023/05/20 04:55:40;;;;;;;5.60;4.50;;;14.80;80.50;;;;;;5010177;28;20539;-61
2023/05/20 04:58:07;;;;;;;5.20;4.70;;;14.80;80.40;;;;;;5011435;28;20037;-61
2023/05/20 05:00:32;;;;;;;5.63;4.55;;;14.80;80.50;;;;;;5008092;28;20405;-61
2023/05/20 05:02:58;;;;;;;5.93;4.80;;;14.90;80.50;;;;;;5014696;28;20033;-61
2023/05/20 05:05:24;;;;;;;4.80;4.40;;;14.90;80.50;;;;;;5014862;28;20121;-61
2023/05/20 05:07:49;;;;;;;5.00;4.22;;;14.90;80.30;;;;;;5010611;28;20098;-60
2023/05/20 05:10:15;;;;;;;5.03;4.53;;;14.90;80.40;;;;;;5010582;28;20642;-61
2023/05/20 05:12:41;;;;;;;4.72;4.32;;;14.90;80.40;;;;;;5006635;28;20046;-61
2023/05/20 05:15:07;;;;;;;5.45;4.95;;;14.90;80.40;;;;;;5009591;28;20034;-60
2023/05/20 05:17:32;;;;;;;5.88;4.68;;;14.90;80.40;;;;;;5013685;28;20026;-61
2023/05/20 05:19:58;;;;;;;6.63;5.28;;;14.90;80.50;;;;;;5013542;28;20413;-61
2023/05/20 05:22:23;;;;;;;6.57;5.22;;;14.90;80.50;;;;;;5009886;28;20070;-61
2023/05/20 05:24:49;;;;;;;5.75;5.25;;;14.90;80.50;;;;;;5012574;28;20230;-60
2023/05/20 05:27:15;;;;;;;4.97;4.57;;;14.90;80.50;;;;;;5010380;28;20034;-60
2023/05/20 05:29:41;;;;;;;5.03;4.53;;;14.90;80.50;;;;;;5008492;28;20029;-61
2023/05/20 05:32:06;;;;;;;6.47;5.15;;;14.90;80.50;;;;;;5012614;28;20042;-61
2023/05/20 05:34:32;;;;;;;6.45;4.63;;;14.90;80.50;;;;;;5005702;28;20030;-61
2023/05/20 05:36:57;;;;;;;5.20;4.70;;;14.90;80.60;;;;;;5008145;28;20168;-61
2023/05/20 05:39:23;;;;;;;6.13;4.80;;;15.00;80.70;;;;;;5008693;28;20514;-60
2023/05/20 05:41:49;;;;;;;5.72;5.00;;;15.00;80.70;;;;;;5006619;28;20453;-61
2023/05/20 05:44:14;;;;;;;6.40;5.18;;;14.90;80.60;;;;;;5017648;28;20044;-61
2023/05/20 05:46:40;;;;;;;8.68;5.03;;;15.00;80.80;;;;;;5017440;28;20456;-62
2023/05/20 05:49:05;;;;;;;5.40;4.90;;;15.00;80.80;;;;;;5018123;28;20041;-61
2023/05/20 05:51:31;;;;;;;5.60;5.10;;;15.00;80.80;;;;;;5016801;28;20037;-62
2023/05/20 05:53:57;;;;;;;5.75;5.15;;;15.00;80.80;;;;;;5017168;28;20064;-61
2023/05/20 05:56:22;;;;;;;7.15;5.82;;;15.10;80.90;;;;;;5018010;28;20421;-61
2023/05/20 05:58:48;;;;;;;6.82;5.90;;;15.00;80.80;;;;;;5016893;28;20033;-61
2023/05/20 06:01:13;;;;;;;7.00;5.72;;;15.10;81.00;;;;;;5014193;28;20121;-62
2023/05/20 06:03:39;;;;;;;5.82;4.97;;;15.00;80.80;;;;;;5008930;28;20038;-60
2023/05/20 06:06:05;;;;;;;7.50;5.93;;;15.10;80.80;;;;;;5007797;28;20112;-59
2023/05/20 06:08:30;;;;;;;5.85;5.25;;;15.10;80.80;;;;;;5004485;28;20052;-60
2023/05/20 06:10:56;;;;;;;5.75;5.15;;;15.00;80.80;;;;;;5004072;28;20045;-61
2023/05/20 06:13:22;;;;;;;6.82;5.65;;;15.00;80.90;;;;;;4996340;28;20030;-62
2023/05/20 06:15:50;;;;;;;6.85;5.93;;;15.10;81.10;;;;;;5004478;28;20095;-62
2023/05/20 06:18:16;;;;;;;6.28;5.68;;;15.10;81.20;;;;;;5003046;28;20034;-62
2023/05/20 06:20:42;;;;;;;7.85;6.97;;;15.10;81.00;;;;;;5003522;28;20714;-62
2023/05/20 06:23:07;;;;;;;7.40;6.63;;;15.10;81.00;;;;;;4995803;28;20692;-61
2023/05/20 06:25:33;;;;;;;7.93;6.82;;;15.10;81.00;;;;;;4991835;28;20040;-61
2023/05/20 06:27:58;;;;;;;8.60;7.20;;;15.20;81.20;;;;;;4992860;28;20045;-62
2023/05/20 06:30:24;;;;;;;8.23;7.10;;;15.20;81.20;;;;;;4995340;28;20405;-61
2023/05/20 06:32:49;;;;;;;8.43;7.07;;;15.10;81.20;;;;;;4992514;28;20053;-62
2023/05/20 06:35:15;;;;;;;10.30;7.35;;;15.20;81.30;;;;;;4997794;28;21016;-61
2023/05/20 06:37:40;;;;;;;9.68;7.30;;;15.20;81.20;;;;;;4995945;28;20054;-62
2023/05/20 06:40:07;;;;;;;8.45;7.10;;;15.20;81.30;;;;;;4993980;28;20129;-62
2023/05/20 06:42:33;;;;;;;8.27;6.97;;;15.20;81.20;;;;;;4989651;28;20042;-62
2023/05/20 06:44:58;;;;;;;8.05;7.10;;;15.20;81.40;;;;;;4996116;28;20073;-61
2023/05/20 06:47:24;;;;;;;10.73;7.20;;;15.20;81.30;;;;;;4991886;28;20034;-61
2023/05/20 06:49:50;;;;;;;9.30;7.18;;;15.20;81.30;;;;;;4993204;28;20568;-61
2023/05/20 06:52:15;;;;;;;9.52;7.13;;;15.30;81.30;;;;;;4993331;28;20045;-61
2023/05/20 06:54:41;;;;;;;10.50;7.05;;;15.30;81.20;;;;;;4990861;28;20172;-61
2023/05/20 06:57:07;;;;;;;7.35;6.57;;;15.30;81.10;;;;;;4989349;28;20037;-62
2023/05/20 06:59:34;;;;;;;7.88;6.50;;;15.30;80.90;;;;;;4992019;28;20034;-62
2023/05/20 07:02:00;;;;;;;7.05;6.32;;;15.40;80.80;;;;;;4987345;28;20441;-62
2023/05/20 07:04:25;;;;;;;8.80;7.03;;;15.40;80.80;;;;;;4993505;28;20068;-62
2023/05/20 07:06:51;;;;;;;8.10;6.80;;;15.40;80.80;;;;;;4997837;28;20421;-60
2023/05/20 07:09:17;;;;;;;7.78;6.45;;;15.40;80.70;;;;;;4998378;28;20045;-62
2023/05/20 07:11:42;;;;;;;8.35;6.38;;;15.40;80.60;;;;;;5003445;28;20030;-62
2023/05/20 07:14:08;;;;;;;7.97;6.38;;;15.40;80.60;;;;;;5005499;28;20064;-61
2023/05/20 07:16:33;;;;;;;8.00;6.88;;;15.40;80.60;;;;;;4996148;28;20037;-62
2023/05/20 07:18:59;;;;;;;7.30;6.20;;;15.40;80.50;;;;;;5000713;28;20088;-62
2023/05/20 07:21:25;;;;;;;7.40;6.30;;;15.40;80.30;;;;;;5006334;28;20470;-62
2023/05/20 07:23:51;;;;;;;7.57;6.80;;;15.50;80.30;;;;;;5002213;28;20042;-61
2023/05/20 07:26:17;;;;;;;8.80;6.20;;;15.40;80.40;;;;;;5003912;28;20128;-61
2023/05/20 07:28:42;;;;;;;6.97;6.25;;;15.40;80.40;;;;;;4998961;28;20042;-62
2023/05/20 07:31:08;;;;;;;7.78;6.75;;;15.50;80.50;;;;;;5007134;28;20038;-60
2023/05/20 07:33:34;;;;;;;7.47;6.68;;;15.40;80.50;;;;;;5007627;28;20045;-62
2023/05/20 07:35:59;;;;;;;7.45;6.53;;;15.40;80.50;;;;;;5009438;28;20448;-62
2023/05/20 07:38:25;;;;;;;10.02;7.25;;;15.40;80.50;;;;;;5003053;28;20041;-62
2023/05/20 07:40:51;;;;;;;9.95;6.80;;;15.50;80.60;;;;;;5002641;28;20030;-62
2023/05/20 07:43:16;;;;;;;8.80;6.90;;;15.50;80.80;;;;;;5000939;28;20025;-62
2023/05/20 07:45:42;;;;;;;7.40;6.57;;;15.50;80.90;;;;;;4998276;28;20192;-62
2023/05/20 07:48:09;;;;;;;9.05;6.78;;;15.50;80.70;;;;;;5005258;28;20087;-61
2023/05/20 07:50:35;;;;;;;8.60;7.22;;;15.60;80.60;;;;;;5003982;28;20033;-62
2023/05/20 07:53:01;;;;;;;9.52;7.22;;;15.60;80.70;;;;;;5003788;28;20045;-62
2023/05/20 07:55:26;;;;;;;10.20;7.90;;;15.60;80.60;;;;;;5007123;28;20099;-62
2023/05/20 07:57:52;;;;;;;8.15;7.20;;;15.60;80.60;;;;;;5010740;28;20088;-62
2023/05/20 08:00:18;;;;;;;8.80;7.50;;;15.60;80.50;;;;;;5008248;28;20041;-62
2023/05/20 08:02:43;;;;;;;9.25;7.78;;;15.60;80.60;;;;;;5010166;28;20410;-61
2023/05/20 08:05:09;;;;;;;9.15;7.82;;;15.70;80.60;;;;;;5005121;28;20048;-62
2023/05/20 08:07:35;;;;;;;9.30;7.90;;;15.70;80.50;;;;;;5007740;28;20144;-62
2023/05/20 08:10:00;;;;;;;9.20;7.93;;;15.70;80.50;;;;;;5005494;28;20108;-61
2023/05/20 08:12:26;;;;;;;9.40;7.75;;;15.70;80.60;;;;;;5007292;28;20053;-62
2023/05/20 08:14:53;;;;;;;9.98;7.85;;;15.80;80.60;;;;;;5002566;28;20104;-62
2023/05/20 08:17:18;;;;;;;10.38;8.10;;;15.80;80.50;;;;;;5004009;28;20029;-62
2023/05/20 08:19:44;;;;;;;9.20;8.05;;;15.80;80.20;;;;;;5005280;28;20033;-62
2023/05/20 08:22:11;;;;;;;9.75;7.90;;;15.80;80.10;;;;;;5010438;28;20041;-62
2023/05/20 08:24:37;;;;;;;10.20;7.85;;;15.80;80.20;;;;;;5010227;28;20246;-61
2023/05/20 08:27:04;;;;;;;9.45;7.50;;;15.80;80.20;;;;;;5001460;28;20057;-62
2023/05/20 08:29:29;;;;;;;11.45;7.53;;;15.90;80.40;;;;;;4998053;28;20041;-62
2023/05/20 08:31:55;;;;;;;8.40;7.32;;;15.90;80.40;;;;;;5007721;28;20603;-62
2023/05/20 08:34:21;;;;;;;9.73;7.85;;;16.00;80.40;;;;;;5010998;28;20030;-62
2023/05/20 08:36:46;;;;;;;8.43;6.97;;;16.10;80.10;;;;;;5011109;28;20076;-62
2023/05/20 08:39:12;;;;;;;11.90;9.38;;;16.10;79.80;;;;;;5012295;28;20026;-62
2023/05/20 08:41:38;;;;;;;10.07;8.50;;;16.20;79.80;;;;;;5006673;28;20046;-61
2023/05/20 08:44:04;;;;;;;9.20;7.70;;;16.30;79.70;;;;;;5006943;28;20030;-62
2023/05/20 08:46:34;;;;;;;8.13;7.20;;;16.40;79.40;;;;;;5002598;28;20037;-62
2023/05/20 08:49:01;;;;;;;7.90;6.43;;;16.50;79.10;;;;;;5008947;28;20048;-62
2023/05/20 08:51:28;;;;;;;7.97;6.93;;;16.50;78.80;;;;;;5008441;28;20091;-62
2023/05/20 08:53:53;;;;;;;8.43;7.25;;;16.60;78.30;;;;;;5004570;28;20040;-60
2023/05/20 08:56:20;;;;;;;7.80;7.00;;;16.60;78.00;;;;;;5015555;28;20029;-60
2023/05/20 08:58:46;;;;;;;8.05;6.85;;;16.70;77.90;;;;;;5016479;28;20037;-61
2023/05/20 09:01:12;;;;;;;11.93;7.07;;;16.80;77.70;;;;;;5014228;28;20118;-60
2023/05/20 09:03:38;;;;;;;7.60;6.50;;;16.80;77.50;;;;;;5013850;28;20071;-62
2023/05/20 09:06:07;;;;;;;8.35;6.60;;;16.90;77.30;;;;;;5016392;28;20037;-62
2023/05/20 09:08:33;;;;;;;7.15;6.45;;;16.90;77.00;;;;;;5006451;28;20065;-61
2023/05/20 09:10:59;;;;;;;8.18;7.03;;;17.00;77.20;;;;;;5011103;28;20536;-62
2023/05/20 09:13:26;;;;;;;7.45;6.50;;;17.00;76.70;;;;;;5010286;28;20042;-60
2023/05/20 09:15:52;;;;;;;7.82;6.82;;;17.10;76.80;;;;;;5017388;28;20100;-61
2023/05/20 09:18:18;;;;;;;7.15;6.45;;;17.10;76.70;;;;;;5014299;28;20437;-60
2023/05/20 09:20:46;;;;;;;7.57;6.72;;;17.20;76.60;;;;;;5014265;28;20040;-61
2023/05/20 09:23:12;;;;;;;7.45;6.70;;;17.30;76.60;;;;;;5015668;28;20030;-61
2023/05/20 09:25:38;;;;;;;7.45;6.53;;;17.40;76.20;;;;;;5016008;28;20041;-61
2023/05/20 09:28:06;;;;;;;6.95;6.25;;;17.50;75.80;;;;;;5017412;28;20541;-61
2023/05/20 09:30:32;;;;;;;8.25;6.68;;;17.60;75.60;;;;;;5016090;28;20035;-62
2023/05/20 09:32:59;;;;;;;6.93;6.25;;;17.60;75.20;;;;;;5014625;28;20405;-61
2023/05/20 09:35:27;;;;;;;7.05;6.38;;;17.70;74.70;;;;;;5016029;28;20472;-62
2023/05/20 09:37:55;;;;;;;7.93;6.95;;;17.80;74.40;;;;;;5013994;28;20481;-61
2023/05/20 09:40:24;;;;;;;10.00;7.47;;;17.90;73.90;;;;;;5017316;28;20060;-61
2023/05/20 09:43:02;;;;;;;8.75;7.85;;;18.00;74.00;;;;;;5016550;28;20068;-61
2023/05/20 09:45:27;;;;;;;10.82;8.30;;;18.00;73.30;;;;;;5015087;28;20053;-61
2023/05/20 09:47:55;;;;;;;9.02;8.07;;;18.00;73.30;;;;;;5016042;28;20033;-62
2023/05/20 09:50:22;;;;;;;9.00;8.10;;;18.10;73.50;;;;;;5014165;28;20061;-61
2023/05/20 09:52:51;;;;;;;8.40;7.25;;;18.10;73.90;;;;;;5011730;28;20045;-62
2023/05/20 09:55:20;;;;;;;9.02;7.85;;;18.10;73.40;;;;;;5008891;28;20033;-62
2023/05/20 09:57:46;;;;;;;10.15;7.95;;;18.10;73.90;;;;;;5015703;28;20489;-62
2023/05/20 10:00:13;;;;;;;8.40;7.60;;;18.20;74.10;;;;;;5015125;28;20067;-61
2023/05/20 10:02:48;;;;;;;8.65;7.75;;;18.20;73.90;;;;;;5014268;28;20119;-61
2023/05/20 10:05:26;;;;;;;8.32;7.53;;;18.30;73.00;;;;;;5015515;28;20040;-62
2023/05/20 10:08:17;;;;;;;8.65;7.75;;;18.40;72.20;;;;;;5017377;28;20030;-62
2023/05/20 10:10:54;;;;;;;8.90;8.00;;;18.40;71.60;;;;;;5012839;28;20509;-62
2023/05/20 10:13:41;;;;;;;11.80;8.23;;;18.30;72.20;;;;;;5017198;28;20038;-61
2023/05/20 10:16:19;;;;;;;9.23;7.13;;;18.30;72.30;;;;;;5014866;28;20452;-62
2023/05/20 10:18:47;;;;;;;7.55;6.85;;;18.40;72.50;;;;;;5015996;28;20037;-62
2023/05/20 10:21:21;;;;;;;6.47;5.88;;;18.40;72.00;;;;;;5015316;28;20382;-61
2023/05/20 10:23:46;;;;;;;7.82;7.03;;;18.40;72.10;;;;;;5013766;28;20030;-60
2023/05/20 10:26:12;;;;;;;8.48;7.60;;;18.50;72.20;;;;;;5015869;28;20043;-61
2023/05/20 10:28:40;;;;;;;9.93;8.32;;;18.60;72.30;;;;;;5015489;28;20045;-62
2023/05/20 10:31:17;;;;;;;9.50;7.88;;;18.60;71.40;;;;;;5015398;28;20409;-61
2023/05/20 10:33:45;;;;;;;9.45;8.20;;;18.70;71.60;;;;;;5016533;28;20033;-61
2023/05/20 10:36:29;;;;;;;10.07;8.70;;;18.70;71.30;;;;;;5014698;28;20041;-61
2023/05/20 10:38:57;;;;;;;8.32;7.53;;;18.70;70.20;;;;;;5013713;28;20084;-62
2023/05/20 10:41:28;;;;;;;7.97;7.18;;;18.70;71.30;;;;;;5015088;28;20042;-61
2023/05/20 10:44:04;;;;;;;9.20;7.82;;;18.70;71.10;;;;;;5015250;28;20432;-60
2023/05/20 10:46:31;;;;;;;8.68;7.72;;;18.70;69.80;;;;;;5014672;28;20029;-61
2023/05/20 10:48:57;;;;;;;9.00;8.10;;;18.70;70.60;;;;;;5015532;28;20497;-62
2023/05/20 10:51:24;;;;;;;8.82;7.93;;;18.70;70.80;;;;;;5006210;28;20088;-61
2023/05/20 10:53:54;;;;;;;8.85;8.02;;;18.70;70.80;;;;;;5013295;28;20037;-60
2023/05/20 10:56:25;;;;;;;8.45;7.68;;;18.70;70.80;;;;;;5009570;28;20513;-62
2023/05/20 10:58:54;;;;;;;7.88;7.07;;;18.70;70.90;;;;;;5010823;28;20041;-62
2023/05/20 11:01:25;;;;;;;8.63;7.28;;;18.70;70.60;;;;;;5014677;28;20406;-61
2023/05/20 11:03:53;;;;;;;7.35;6.63;;;18.70;70.60;;;;;;5015840;28;20033;-61
2023/05/20 11:06:18;;;;;;;9.40;6.88;;;18.70;70.70;;;;;;5015833;28;20040;-62
2023/05/20 11:08:45;;;;;;;7.65;6.93;;;18.70;70.70;;;;;;5013105;28;20042;-61
2023/05/20 11:11:11;;;;;;;7.80;6.95;;;18.80;70.70;;;;;;5009749;28;20033;-62
2023/05/20 11:13:37;;;;;;;8.43;7.25;;;18.90;70.80;;;;;;5013161;28;20079;-62
2023/05/20 11:16:03;;;;;;;8.13;6.97;;;19.00;70.90;;;;;;5013211;28;20026;-61
2023/05/20 11:18:30;;;;;;;8.27;7.47;;;19.00;71.00;;;;;;5011580;28;20172;-62
2023/05/20 11:20:56;;;;;;;8.40;7.60;;;19.10;70.90;;;;;;5013913;28;20058;-61
2023/05/20 11:23:22;;;;;;;8.15;6.88;;;19.20;70.30;;;;;;5014607;28;20056;-61
2023/05/20 11:25:52;;;;;;;8.23;7.38;;;19.20;70.70;;;;;;5013768;28;20034;-62
2023/05/20 11:28:20;;;;;;;7.22;6.55;;;19.30;70.40;;;;;;5015233;28;20038;-62
2023/05/20 11:30:47;;;;;;;7.50;6.80;;;19.40;70.60;;;;;;5013951;28;20068;-61
2023/05/20 11:33:14;;;;;;;7.18;6.47;;;19.60;70.50;;;;;;5014008;28;20049;-62
2023/05/20 11:35:48;;;;;;;9.93;7.22;;;19.70;70.00;;;;;;5012485;28;20045;-61
2023/05/20 11:38:14;;;;;;;7.97;7.18;;;19.80;68.90;;;;;;5012818;28;20038;-62
2023/05/20 11:40:45;;;;;;;7.70;6.82;;;19.90;69.20;;;;;;5012307;28;20088;-62
2023/05/20 11:43:12;;;;;;;7.35;6.65;;;20.00;69.20;;;;;;5011837;28;20125;-62
2023/05/20 11:45:45;;;;;;;7.90;7.07;;;20.10;69.00;;;;;;5012372;28;20033;-62
2023/05/20 11:48:11;;;;;;;7.80;6.32;;;20.30;68.10;;;;;;5012710;28;20044;-63
2023/05/20 11:50:40;;;;;;;8.88;6.43;;;20.30;68.40;;;;;;5007979;28;20410;-62
2023/05/20 11:53:08;;;;;;;7.40;6.70;;;20.40;68.30;;;;;;5007051;28;20049;-62
2023/05/20 11:55:45;;;;;;;7.25;6.55;;;20.50;67.90;;;;;;5007860;28;20037;-61
2023/05/20 11:58:11;;;;;;;8.63;6.90;;;20.60;67.60;;;;;;5016698;28;20037;-62
2023/05/20 12:00:36;;;;;;;7.63;6.28;;;20.70;67.30;;;;;;5016393;28;20044;-60
2023/05/20 12:03:02;;;;;;;7.10;6.40;;;20.80;67.50;;;;;;5015974;28;20065;-62
2023/05/20 12:05:27;;;;;;;7.38;6.68;;;20.80;67.10;;;;;;5015270;28;20088;-60
2023/05/20 12:07:53;;;;;;;6.80;6.10;;;21.00;66.60;;;;;;5016198;28;20092;-62
2023/05/20 12:10:18;;;;;;;5.93;5.43;;;21.00;67.80;;;;;;5007552;28;20060;-61
2023/05/20 12:12:44;;;;;;;5.32;4.85;;;21.10;66.60;;;;;;5011063;28;20125;-62
2023/05/20 12:15:10;;;;;;;5.78;5.28;;;21.10;66.20;;;;;;5016629;28;20041;-62
2023/05/20 12:17:51;;;;;;;6.07;5.47;;;21.20;66.20;;;;;;5015241;28;20030;-62
2023/05/20 12:20:21;;;;;;;6.00;5.50;;;21.20;65.00;;;;;;5013007;28;20072;-62
2023/05/20 12:22:47;;;;;;;5.93;5.32;;;21.30;65.30;;;;;;5007663;28;20565;-62
2023/05/20 12:25:14;;;;;;;5.30;4.80;;;21.40;65.40;;;;;;5015292;28;20080;-61
2023/05/20 12:27:47;;;;;;;5.15;4.70;;;21.50;65.20;;;;;;5010220;28;20099;-62
2023/05/20 12:30:15;;;;;;;6.05;5.45;;;21.50;64.70;;;;;;5008601;28;20037;-63
2023/05/20 12:32:42;;;;;;;6.88;5.57;;;21.60;64.60;;;;;;5007213;28;20088;-62
2023/05/20 12:35:08;;;;;;;7.10;6.22;;;21.60;63.90;;;;;;5009099;28;20280;-63
2023/05/20 12:37:35;;;;;;;5.93;5.38;;;21.60;63.80;;;;;;5006047;28;20034;-61
2023/05/20 12:40:01;;;;;;;5.93;5.43;;;21.60;64.50;;;;;;5011624;28;20411;-63
2023/05/20 12:42:26;;;;;;;5.55;5.05;;;21.70;64.60;;;;;;5012570;28;20034;-63